createdAt,value
2019-05-20T00:00:15.599Z,100.00
2019-05-20T00:02:44.964Z,100.00
2019-05-20T00:05:14.309Z,100.00
2019-05-20T00:07:43.688Z,100.00
2019-05-20T00:10:13.303Z,100.00
2019-05-20T00:12:42.591Z,100.00
2019-05-20T00:15:12.097Z,100.00
2019-05-20T00:17:41.832Z,100.00
2019-05-20T00:20:11.178Z,100.00
2019-05-20T00:22:41.150Z,100.00
2019-05-20T00:25:10.625Z,100.00
2019-05-20T00:27:39.908Z,100.00
2019-05-20T00:30:09.613Z,100.00
2019-05-20T00:32:41.675Z,100.00
2019-05-20T00:35:10.294Z,100.00
2019-05-20T00:37:39.653Z,100.00
2019-05-20T00:40:09.398Z,100.00
2019-05-20T00:42:38.860Z,100.00
2019-05-20T00:45:08.302Z,100.00
2019-05-20T00:47:37.591Z,100.00
2019-05-20T00:50:07.784Z,100.00
2019-05-20T00:52:37.140Z,100.00
2019-05-20T00:55:07.373Z,100.00
2019-05-20T00:57:36.793Z,100.00
2019-05-20T01:00:07.194Z,100.00
2019-05-20T01:02:36.626Z,100.00
2019-05-20T01:05:06.336Z,100.00
2019-05-20T01:07:35.640Z,100.00
2019-05-20T01:10:05.569Z,100.00
2019-05-20T01:12:35.420Z,100.00
2019-05-20T01:15:05.037Z,100.00
2019-05-20T01:17:34.492Z,100.00
2019-05-20T01:20:04.037Z,100.00
2019-05-20T01:22:33.573Z,100.00
2019-05-20T01:25:02.900Z,100.00
2019-05-20T01:27:32.387Z,100.00
2019-05-20T01:30:01.742Z,100.00
2019-05-20T01:32:31.169Z,100.00
2019-05-20T01:35:00.590Z,100.00
2019-05-20T01:37:29.851Z,100.00
2019-05-20T01:39:59.294Z,100.00
2019-05-20T01:42:28.749Z,100.00
2019-05-20T01:44:58.030Z,100.00
2019-05-20T01:47:27.426Z,100.00
2019-05-20T01:49:57.121Z,100.00
2019-05-20T01:52:26.828Z,100.00
2019-05-20T01:54:56.150Z,100.00
2019-05-20T01:57:25.613Z,100.00
2019-05-20T01:59:54.925Z,100.00
2019-05-20T02:02:24.706Z,100.00
2019-05-20T02:04:54.118Z,100.00
2019-05-20T02:07:23.452Z,100.00
2019-05-20T02:09:53.236Z,100.00
2019-05-20T02:12:22.959Z,100.00
2019-05-20T02:14:58.784Z,100.00
2019-05-20T02:17:28.238Z,100.00
2019-05-20T02:19:57.568Z,100.00
2019-05-20T02:22:27.012Z,100.00
2019-05-20T02:24:56.802Z,100.00
2019-05-20T02:27:26.169Z,100.00
2019-05-20T02:29:55.523Z,100.00
2019-05-20T02:32:25.126Z,100.00
2019-05-20T02:34:54.430Z,100.00
2019-05-20T02:37:23.852Z,100.00
2019-05-20T02:39:53.349Z,100.00
2019-05-20T02:42:22.680Z,100.00
2019-05-20T02:44:52.070Z,100.00
2019-05-20T02:47:21.470Z,100.00
2019-05-20T02:49:50.861Z,100.00
2019-05-20T02:52:20.326Z,100.00
2019-05-20T02:54:50.402Z,100.00
2019-05-20T02:57:19.727Z,100.00
2019-05-20T02:59:49.151Z,100.00
2019-05-20T03:02:19.110Z,100.00
2019-05-20T03:04:48.422Z,100.00
2019-05-20T03:07:17.867Z,100.00
2019-05-20T03:09:47.229Z,100.00
2019-05-20T03:12:16.508Z,100.00
2019-05-20T03:14:45.867Z,100.00
2019-05-20T03:17:15.232Z,100.00
2019-05-20T03:19:44.552Z,100.00
2019-05-20T03:22:13.938Z,100.00
2019-05-20T03:24:43.598Z,100.00
2019-05-20T03:27:12.911Z,100.00
2019-05-20T03:29:42.345Z,100.00
2019-05-20T03:32:11.626Z,100.00
2019-05-20T03:34:48.598Z,100.00
2019-05-20T03:37:12.346Z,100.00
2019-05-20T03:39:41.998Z,100.00
2019-05-20T03:42:11.407Z,100.00
2019-05-20T03:44:41.095Z,100.00
2019-05-20T03:47:10.345Z,100.00
2019-05-20T03:49:39.646Z,100.00
2019-05-20T03:52:09.381Z,100.00
2019-05-20T03:54:38.715Z,100.00
2019-05-20T03:57:08.014Z,100.00
2019-05-20T03:59:37.421Z,100.00
2019-05-20T04:02:06.731Z,100.00
2019-05-20T04:04:36.087Z,100.00
2019-05-20T04:07:05.585Z,100.00
2019-05-20T04:09:34.909Z,100.00
2019-05-20T04:12:04.257Z,100.00
2019-05-20T04:14:33.890Z,100.00
2019-05-20T04:17:03.163Z,100.00
2019-05-20T04:19:32.484Z,100.00
2019-05-20T04:22:02.042Z,100.00
2019-05-20T04:24:31.346Z,100.00
2019-05-20T04:27:01.409Z,100.00
2019-05-20T04:29:31.301Z,100.00
2019-05-20T04:32:00.652Z,100.00
2019-05-20T04:34:30.013Z,100.00
2019-05-20T04:36:59.506Z,100.00
2019-05-20T04:39:28.793Z,100.00
2019-05-20T04:41:58.099Z,100.00
2019-05-20T04:44:27.701Z,100.00
2019-05-20T04:46:57.953Z,100.00
2019-05-20T04:49:27.518Z,100.00
2019-05-20T04:51:57.179Z,100.00
2019-05-20T04:54:26.466Z,100.00
2019-05-20T04:56:55.729Z,100.00
2019-05-20T04:59:25.193Z,100.00
2019-05-20T05:01:54.476Z,100.00
2019-05-20T05:04:23.792Z,100.00
2019-05-20T05:06:53.385Z,100.00
2019-05-20T05:09:22.735Z,100.00
2019-05-20T05:11:52.102Z,100.00
2019-05-20T05:14:21.754Z,100.00
2019-05-20T05:16:51.093Z,100.00
2019-05-20T05:19:20.554Z,100.00
2019-05-20T05:21:50.173Z,100.00
2019-05-20T05:24:19.575Z,100.00
2019-05-20T05:26:48.861Z,100.00
2019-05-20T05:29:18.695Z,100.00
2019-05-20T05:31:48.080Z,100.00
2019-05-20T05:34:17.456Z,100.00
2019-05-20T05:36:47.477Z,100.00
2019-05-20T05:39:16.739Z,100.00
2019-05-20T05:41:46.202Z,100.00
2019-05-20T05:44:16.339Z,100.00
2019-05-20T05:46:45.670Z,100.00
2019-05-20T05:49:14.966Z,100.00
2019-05-20T05:51:44.512Z,100.00
2019-05-20T05:54:13.793Z,100.00
2019-05-20T05:56:43.140Z,100.00
2019-05-20T05:59:13.045Z,100.00
2019-05-20T06:01:42.429Z,100.00
2019-05-20T06:04:11.863Z,100.00
2019-05-20T06:06:41.590Z,100.00
2019-05-20T06:09:10.930Z,99.91
2019-05-20T06:11:40.188Z,99.71
2019-05-20T06:14:09.969Z,100.00
2019-05-20T06:16:39.551Z,100.00
2019-05-20T06:19:09.096Z,100.00
2019-05-20T06:21:38.605Z,99.35
2019-05-20T06:24:08.081Z,100.00
2019-05-20T06:26:37.545Z,100.00
2019-05-20T06:29:07.930Z,100.00
2019-05-20T06:31:37.234Z,100.00
2019-05-20T06:34:06.730Z,100.00
2019-05-20T06:36:40.957Z,98.42
2019-05-20T06:39:14.058Z,100.00
2019-05-20T06:41:43.736Z,100.00
2019-05-20T06:44:13.058Z,99.42
2019-05-20T06:46:42.549Z,99.32
2019-05-20T06:49:11.927Z,98.49
2019-05-20T06:51:41.248Z,100.00
2019-05-20T06:54:10.546Z,98.98
2019-05-20T06:56:40.158Z,99.67
2019-05-20T06:59:09.588Z,99.67
2019-05-20T07:01:38.888Z,99.40
2019-05-20T07:04:08.626Z,98.59
2019-05-20T07:06:46.800Z,97.89
2019-05-20T07:09:09.885Z,97.04
2019-05-20T07:11:39.278Z,96.79
2019-05-20T07:14:08.642Z,95.81
2019-05-20T07:16:38.036Z,96.06
2019-05-20T07:19:07.431Z,95.90
2019-05-20T07:21:36.687Z,96.43
2019-05-20T07:24:06.229Z,96.03
2019-05-20T07:26:35.633Z,97.79
2019-05-20T07:29:04.965Z,98.18
2019-05-20T07:31:34.332Z,95.38
2019-05-20T07:34:03.792Z,96.16
2019-05-20T07:36:33.447Z,95.93
2019-05-20T07:39:04.141Z,95.42
2019-05-20T07:41:33.496Z,96.20
2019-05-20T07:44:03.097Z,96.07
2019-05-20T07:46:33.247Z,96.11
2019-05-20T07:49:03.062Z,95.18
2019-05-20T07:51:33.136Z,95.44
2019-05-20T07:54:03.640Z,96.22
2019-05-20T07:56:36.714Z,95.50
2019-05-20T07:59:09.017Z,94.80
2019-05-20T08:01:38.404Z,94.37
2019-05-20T08:04:07.879Z,94.23
2019-05-20T08:06:37.370Z,92.54
2019-05-20T08:09:08.033Z,93.23
2019-05-20T08:11:37.439Z,93.73
2019-05-20T08:14:06.999Z,93.24
2019-05-20T08:16:36.390Z,92.00
2019-05-20T08:19:06.021Z,92.88
2019-05-20T08:21:35.527Z,94.80
2019-05-20T08:24:04.967Z,94.46
2019-05-20T08:26:34.530Z,94.06
2019-05-20T08:29:04.288Z,94.49
2019-05-20T08:31:33.607Z,93.90
2019-05-20T08:34:03.099Z,92.50
2019-05-20T08:36:32.486Z,92.10
2019-05-20T08:39:01.933Z,92.69
2019-05-20T08:41:31.485Z,91.91
2019-05-20T08:44:00.747Z,93.75
2019-05-20T08:46:30.062Z,89.65
2019-05-20T08:48:59.522Z,91.08
2019-05-20T08:51:28.794Z,90.46
2019-05-20T08:53:58.106Z,89.04
2019-05-20T08:56:27.614Z,89.34
2019-05-20T08:58:56.929Z,89.77
2019-05-20T09:01:26.321Z,89.08
2019-05-20T09:03:55.697Z,90.56
2019-05-20T09:06:25.185Z,90.44
2019-05-20T09:08:54.483Z,88.94
2019-05-20T09:11:24.052Z,88.89
2019-05-20T09:13:53.676Z,88.26
2019-05-20T09:16:22.978Z,87.24
2019-05-20T09:18:52.310Z,86.96
2019-05-20T09:21:21.725Z,86.61
2019-05-20T09:23:51.143Z,85.91
2019-05-20T09:26:20.749Z,86.44
2019-05-20T09:28:50.233Z,83.27
2019-05-20T09:31:19.875Z,85.14
2019-05-20T09:33:49.480Z,85.85
2019-05-20T09:36:19.437Z,85.18
2019-05-20T09:38:48.699Z,85.94
2019-05-20T09:41:18.099Z,86.88
2019-05-20T09:43:47.994Z,87.12
2019-05-20T09:46:17.326Z,86.26
2019-05-20T09:48:46.759Z,87.72
2019-05-20T09:51:16.201Z,87.42
2019-05-20T09:53:45.491Z,82.52
2019-05-20T09:56:14.926Z,85.44
2019-05-20T09:58:44.315Z,84.45
2019-05-20T10:01:13.596Z,85.30
2019-05-20T10:03:43.025Z,82.15
2019-05-20T10:06:12.824Z,83.43
2019-05-20T10:08:44.939Z,83.08
2019-05-20T10:11:13.457Z,83.78
2019-05-20T10:13:43.357Z,82.49
2019-05-20T10:16:12.642Z,81.35
2019-05-20T10:18:41.976Z,81.16
2019-05-20T10:21:11.773Z,80.70
2019-05-20T10:23:41.116Z,81.04
2019-05-20T10:26:10.932Z,80.38
2019-05-20T10:28:41.873Z,81.30
2019-05-20T10:31:11.332Z,80.67
2019-05-20T10:33:41.108Z,80.80
2019-05-20T10:36:10.505Z,81.67
2019-05-20T10:38:56.847Z,79.75
2019-05-20T10:41:11.108Z,85.89
2019-05-20T10:43:40.489Z,85.89
2019-05-20T10:46:09.811Z,81.84
2019-05-20T10:48:39.400Z,83.54
2019-05-20T10:51:10.464Z,81.65
2019-05-20T10:53:40.092Z,81.67
2019-05-20T10:56:09.659Z,80.70
2019-05-20T10:58:39.198Z,79.20
2019-05-20T11:01:08.620Z,79.25
2019-05-20T11:03:37.979Z,79.21
2019-05-20T11:06:07.331Z,76.54
2019-05-20T11:08:36.988Z,79.20
2019-05-20T11:11:06.312Z,78.74
2019-05-20T11:13:35.787Z,78.29
2019-05-20T11:16:05.627Z,78.04
2019-05-20T11:18:35.033Z,81.24
2019-05-20T11:21:04.384Z,80.22
2019-05-20T11:23:34.329Z,79.34
2019-05-20T11:26:03.701Z,80.51
2019-05-20T11:28:33.024Z,81.52
2019-05-20T11:31:02.654Z,81.83
2019-05-20T11:33:32.035Z,80.12
2019-05-20T11:36:01.362Z,81.77
2019-05-20T11:38:31.216Z,80.86
2019-05-20T11:41:00.776Z,80.63
2019-05-20T11:43:30.082Z,79.83
2019-05-20T11:45:59.700Z,81.08
2019-05-20T11:48:29.069Z,79.25
2019-05-20T11:50:58.692Z,80.13
2019-05-20T11:53:28.407Z,80.50
2019-05-20T11:55:57.898Z,79.16
2019-05-20T11:58:27.229Z,77.53
2019-05-20T12:00:57.446Z,78.83
2019-05-20T12:03:27.029Z,76.96
2019-05-20T12:05:56.414Z,76.57
2019-05-20T12:08:26.172Z,78.41
2019-05-20T12:10:55.659Z,77.34
2019-05-20T12:13:24.980Z,77.34
2019-05-20T12:15:54.434Z,78.80
2019-05-20T12:18:23.745Z,78.80
2019-05-20T12:20:53.017Z,77.22
2019-05-20T12:23:22.485Z,76.71
2019-05-20T12:25:51.891Z,75.98
2019-05-20T12:28:21.246Z,75.91
2019-05-20T12:30:51.024Z,76.06
2019-05-20T12:33:20.568Z,74.87
2019-05-20T12:35:49.863Z,72.75
2019-05-20T12:38:19.598Z,71.74
2019-05-20T12:40:49.117Z,70.62
2019-05-20T12:43:18.414Z,71.13
2019-05-20T12:45:47.937Z,71.54
2019-05-20T12:48:17.449Z,72.13
2019-05-20T12:50:46.771Z,71.45
2019-05-20T12:53:16.284Z,72.48
2019-05-20T12:55:45.673Z,72.48
2019-05-20T12:58:14.926Z,70.98
2019-05-20T13:00:44.578Z,71.55
2019-05-20T13:03:14.422Z,71.99
2019-05-20T13:05:43.878Z,71.75
2019-05-20T13:08:13.406Z,74.59
2019-05-20T13:10:42.743Z,74.07
2019-05-20T13:13:12.117Z,75.73
2019-05-20T13:15:41.668Z,76.69
2019-05-20T13:18:11.042Z,76.79
2019-05-20T13:20:40.350Z,77.45
2019-05-20T13:23:12.063Z,78.26
2019-05-20T13:25:41.359Z,80.67
2019-05-20T13:28:10.693Z,80.83
2019-05-20T13:30:40.219Z,80.44
2019-05-20T13:33:09.653Z,80.46
2019-05-20T13:35:38.998Z,81.54
2019-05-20T13:38:08.875Z,79.09
2019-05-20T13:40:46.467Z,79.62
2019-05-20T13:43:09.722Z,79.08
2019-05-20T13:45:38.998Z,79.74
2019-05-20T13:48:08.387Z,78.12
2019-05-20T13:50:37.661Z,79.22
2019-05-20T13:53:07.438Z,79.10
2019-05-20T13:55:36.907Z,79.00
2019-05-20T13:58:06.297Z,79.87
2019-05-20T14:00:35.861Z,80.16
2019-05-20T14:03:05.252Z,80.75
2019-05-20T14:05:34.556Z,80.75
2019-05-20T14:08:03.987Z,81.15
2019-05-20T14:10:33.397Z,78.73
2019-05-20T14:13:02.701Z,80.46
2019-05-20T14:15:32.175Z,78.28
2019-05-20T14:18:01.709Z,78.37
2019-05-20T14:20:31.224Z,78.90
2019-05-20T14:23:01.469Z,80.32
2019-05-20T14:25:31.029Z,80.32
2019-05-20T14:28:00.503Z,80.19
2019-05-20T14:30:30.074Z,78.96
2019-05-20T14:32:59.638Z,78.96
2019-05-20T14:35:28.998Z,80.50
2019-05-20T14:37:58.902Z,80.96
2019-05-20T14:40:28.702Z,81.30
2019-05-20T14:42:58.098Z,81.30
2019-05-20T14:45:28.334Z,79.96
2019-05-20T14:47:57.779Z,79.61
2019-05-20T14:50:27.092Z,80.01
2019-05-20T14:52:56.507Z,80.37
2019-05-20T14:55:26.988Z,80.22
2019-05-20T14:57:56.341Z,81.12
2019-05-20T15:00:26.012Z,80.20
2019-05-20T15:02:55.764Z,79.47
2019-05-20T15:05:25.150Z,80.56
2019-05-20T15:07:55.043Z,78.63
2019-05-20T15:10:24.661Z,79.94
2019-05-20T15:12:54.087Z,79.94
2019-05-20T15:15:23.528Z,79.00
2019-05-20T15:17:52.859Z,80.47
2019-05-20T15:20:22.187Z,80.16
2019-05-20T15:22:51.995Z,78.91
2019-05-20T15:25:21.436Z,79.92
2019-05-20T15:27:50.759Z,79.54
2019-05-20T15:30:20.498Z,79.72
2019-05-20T15:32:49.867Z,80.61
2019-05-20T15:35:19.225Z,79.54
2019-05-20T15:37:48.845Z,79.72
2019-05-20T15:40:18.517Z,78.81
2019-05-20T15:42:47.796Z,78.81
2019-05-20T15:45:17.644Z,79.94
2019-05-20T15:47:47.048Z,81.01
2019-05-20T15:50:16.445Z,79.03
2019-05-20T15:52:45.934Z,79.03
2019-05-20T15:55:15.670Z,80.42
2019-05-20T15:57:44.996Z,79.75
2019-05-20T16:00:16.253Z,80.35
2019-05-20T16:05:14.379Z,81.16
2019-05-20T16:07:43.870Z,81.90
2019-05-20T16:10:13.262Z,81.92
2019-05-20T16:12:43.306Z,82.86
2019-05-20T16:15:12.923Z,82.13
2019-05-20T16:17:42.241Z,82.34
2019-05-20T16:20:12.050Z,82.03
2019-05-20T16:22:41.492Z,82.32
2019-05-20T16:25:10.989Z,82.26
2019-05-20T16:27:40.473Z,82.08
2019-05-20T16:30:10.308Z,82.20
2019-05-20T16:32:39.621Z,82.56
2019-05-20T16:37:37.674Z,82.84
2019-05-20T16:40:07.647Z,83.56
2019-05-20T16:42:36.908Z,84.04
2019-05-20T16:45:11.628Z,84.64
2019-05-20T16:47:39.123Z,84.78
2019-05-20T16:50:09.921Z,84.17
2019-05-20T16:52:39.598Z,85.01
2019-05-20T16:55:09.132Z,84.83
2019-05-20T16:57:38.465Z,84.77
2019-05-20T17:00:29.044Z,85.01
2019-05-20T17:02:39.967Z,84.19
2019-05-20T17:05:09.414Z,84.56
2019-05-20T17:07:39.229Z,84.75
2019-05-20T17:10:10.130Z,85.52
2019-05-20T17:12:39.568Z,84.75
2019-05-20T17:15:10.271Z,85.59
2019-05-20T17:17:39.576Z,84.80
2019-05-20T17:20:09.799Z,84.46
2019-05-20T17:22:39.426Z,84.04
2019-05-20T17:25:09.653Z,84.49
2019-05-20T17:27:38.984Z,84.10
2019-05-20T17:30:09.248Z,84.11
2019-05-20T17:32:38.609Z,84.37
2019-05-20T17:35:08.416Z,84.89
2019-05-20T17:37:38.236Z,84.71
2019-05-20T17:40:08.274Z,85.01
2019-05-20T17:42:37.578Z,84.61
2019-05-20T17:45:08.050Z,84.40
2019-05-20T17:47:37.356Z,84.69
2019-05-20T17:50:07.092Z,85.16
2019-05-20T17:52:36.925Z,84.48
2019-05-20T17:55:06.763Z,84.65
2019-05-20T17:57:36.250Z,84.72
2019-05-20T18:00:07.139Z,84.55
2019-05-20T18:02:36.476Z,84.18
2019-05-20T18:05:06.330Z,84.33
2019-05-20T18:07:35.903Z,85.45
2019-05-20T18:10:05.582Z,86.35
2019-05-20T18:12:34.910Z,86.49
2019-05-20T18:15:05.066Z,87.32
2019-05-20T18:17:34.372Z,87.88
2019-05-20T18:20:03.847Z,88.22
2019-05-20T18:22:33.444Z,88.16
2019-05-20T18:25:02.764Z,88.81
2019-05-20T18:27:32.122Z,88.95
2019-05-20T18:30:01.731Z,89.21
2019-05-20T18:32:30.999Z,89.24
2019-05-20T18:35:00.273Z,88.79
2019-05-20T18:37:29.944Z,88.99
2019-05-20T18:40:12.734Z,88.24
2019-05-20T18:42:30.274Z,88.03
2019-05-20T18:45:00.096Z,88.17
2019-05-20T18:47:29.815Z,88.68
2019-05-20T18:49:59.084Z,88.60
2019-05-20T18:52:28.858Z,88.70
2019-05-20T18:54:58.321Z,88.81
2019-05-20T18:57:27.619Z,88.93
2019-05-20T18:59:57.544Z,89.19
2019-05-20T19:02:26.926Z,89.43
2019-05-20T19:04:56.244Z,90.24
2019-05-20T19:07:25.767Z,91.17
2019-05-20T19:09:55.080Z,91.72
2019-05-20T19:12:24.378Z,92.18
2019-05-20T19:14:53.904Z,92.71
2019-05-20T19:17:23.592Z,93.31
2019-05-20T19:19:52.989Z,93.72
2019-05-20T19:22:22.348Z,94.07
2019-05-20T19:24:51.704Z,94.09
2019-05-20T19:27:21.059Z,94.45
2019-05-20T19:29:50.627Z,94.41
2019-05-20T19:32:20.071Z,94.38
2019-05-20T19:34:49.435Z,94.80
2019-05-20T19:37:18.999Z,95.08
2019-05-20T19:39:48.325Z,95.21
2019-05-20T19:42:17.718Z,95.10
2019-05-20T19:44:47.313Z,95.31
2019-05-20T19:47:16.596Z,95.56
2019-05-20T19:49:45.919Z,95.85
2019-05-20T19:52:15.556Z,95.94
2019-05-20T19:54:44.974Z,96.12
2019-05-20T19:57:14.304Z,96.16
2019-05-20T19:59:43.965Z,96.39
2019-05-20T20:02:17.572Z,96.93
2019-05-20T20:04:44.287Z,96.73
2019-05-20T20:07:13.966Z,97.06
2019-05-20T20:09:43.234Z,97.22
2019-05-20T20:12:12.661Z,97.36
2019-05-20T20:14:42.291Z,97.77
2019-05-20T20:17:11.542Z,98.31
2019-05-20T20:19:40.927Z,98.50
2019-05-20T20:22:10.635Z,98.48
2019-05-20T20:24:40.015Z,98.68
2019-05-20T20:27:09.323Z,98.82
2019-05-20T20:29:38.716Z,98.96
2019-05-20T20:32:08.117Z,99.08
2019-05-20T20:34:37.504Z,99.25
2019-05-20T20:37:07.548Z,98.99
2019-05-20T20:39:36.873Z,99.33
2019-05-20T20:42:06.149Z,99.40
2019-05-20T20:44:35.616Z,99.48
2019-05-20T20:47:04.984Z,99.51
2019-05-20T20:49:34.380Z,99.70
2019-05-20T20:52:03.991Z,99.87
2019-05-20T20:54:33.325Z,100.00
2019-05-20T20:57:02.633Z,100.00
2019-05-20T20:59:32.304Z,100.00
2019-05-20T21:02:01.615Z,100.00
2019-05-20T21:04:30.925Z,99.81
2019-05-20T21:07:00.435Z,99.73
2019-05-20T21:09:29.778Z,99.65
2019-05-20T21:11:59.106Z,99.49
2019-05-20T21:14:28.879Z,99.51
2019-05-20T21:16:58.169Z,99.73
2019-05-20T21:19:27.453Z,99.75
2019-05-20T21:21:56.819Z,99.75
2019-05-20T21:24:26.136Z,99.76
2019-05-20T21:26:55.416Z,99.77
2019-05-20T21:29:25.097Z,99.88
2019-05-20T21:31:54.383Z,100.00
2019-05-20T21:34:23.647Z,100.00
2019-05-20T21:36:53.343Z,100.00
2019-05-20T21:39:22.702Z,100.00
2019-05-20T21:41:52.059Z,100.00
2019-05-20T21:44:21.495Z,100.00
2019-05-20T21:46:50.889Z,100.00
2019-05-20T21:49:20.176Z,100.00
2019-05-20T21:51:49.548Z,100.00
2019-05-20T21:54:18.894Z,100.00
2019-05-20T21:56:50.104Z,100.00
2019-05-20T21:59:19.482Z,100.00
2019-05-20T22:01:48.827Z,100.00
2019-05-20T22:04:18.146Z,100.00
2019-05-20T22:06:47.958Z,100.00
2019-05-20T22:09:17.273Z,100.00
2019-05-20T22:11:46.582Z,100.00
2019-05-20T22:14:16.499Z,100.00
2019-05-20T22:16:45.839Z,100.00
2019-05-20T22:19:15.533Z,100.00
2019-05-20T22:21:52.131Z,100.00
2019-05-20T22:24:21.426Z,100.00
2019-05-20T22:26:50.794Z,100.00
2019-05-20T22:29:20.470Z,100.00
2019-05-20T22:31:49.761Z,100.00
2019-05-20T22:34:19.029Z,100.00
2019-05-20T22:36:48.579Z,100.00
2019-05-20T22:39:17.889Z,100.00
2019-05-20T22:41:47.181Z,100.00
2019-05-20T22:44:16.910Z,100.00
2019-05-20T22:46:46.482Z,100.00
2019-05-20T22:49:15.789Z,100.00
2019-05-20T22:51:45.221Z,100.00
2019-05-20T22:54:14.750Z,100.00
2019-05-20T22:56:44.114Z,100.00
2019-05-20T22:59:13.763Z,100.00
2019-05-20T23:01:43.086Z,100.00
2019-05-20T23:04:12.408Z,100.00
2019-05-20T23:06:41.898Z,100.00
2019-05-20T23:09:13.025Z,100.00
2019-05-20T23:11:42.245Z,100.00
2019-05-20T23:14:11.772Z,100.00
2019-05-20T23:16:41.119Z,100.00
2019-05-20T23:19:10.585Z,100.00
2019-05-20T23:21:40.282Z,100.00
2019-05-20T23:24:09.561Z,100.00
2019-05-20T23:26:38.887Z,100.00
2019-05-20T23:29:08.724Z,100.00
2019-05-20T23:31:38.055Z,100.00
2019-05-20T23:34:12.670Z,100.00
2019-05-20T23:36:38.510Z,100.00
2019-05-20T23:39:08.002Z,100.00
2019-05-20T23:41:37.327Z,100.00
2019-05-20T23:44:06.858Z,100.00
2019-05-20T23:46:36.119Z,100.00
2019-05-20T23:49:05.537Z,100.00
2019-05-20T23:51:35.407Z,100.00
2019-05-20T23:54:04.702Z,100.00
2019-05-20T23:56:34.017Z,100.00
2019-05-20T23:59:03.504Z,100.00
